createdAt,value
2022-09-18T00:00:00.000Z,4.2
2022-09-18T00:15:00.000Z,4.19
2022-09-18T00:30:00.000Z,4.25
2022-09-18T00:45:00.000Z,4.36
2022-09-18T01:00:00.000Z,4.38
2022-09-18T01:15:00.000Z,4.54
2022-09-18T01:30:00.000Z,4.55
2022-09-18T01:45:00.000Z,4.86
2022-09-18T02:00:00.000Z,5.2
2022-09-18T02:15:00.000Z,4.84
2022-09-18T02:45:00.000Z,4
2022-09-18T02:45:00.000Z,4.51
2022-09-18T03:00:00.000Z,4.42
2022-09-18T03:15:00.000Z,4.33
2022-09-18T03:30:00.000Z,4.22
2022-09-18T03:45:00.000Z,4.44
2022-09-18T04:00:00.000Z,4.48
2022-09-18T04:15:00.000Z,5.09
2022-09-18T04:30:00.000Z,4.87
2022-09-18T04:45:00.000Z,5.14
2022-09-18T05:00:00.000Z,4.73
2022-09-18T05:15:00.000Z,4.53
2022-09-18T05:30:00.000Z,4.87
2022-09-18T05:45:00.000Z,4.76
2022-09-18T06:00:00.000Z,5.94
2022-09-18T06:15:00.000Z,5.55
2022-09-18T06:30:00.000Z,5.81
2022-09-18T06:45:00.000Z,4.58
2022-09-18T07:00:00.000Z,5.52
2022-09-18T07:15:00.000Z,5.08
2022-09-18T07:30:00.000Z,5.26
2022-09-18T07:45:00.000Z,5.54
2022-09-18T08:00:00.000Z,4.42
2022-09-18T08:15:00.000Z,9.29
2022-09-18T08:30:00.000Z,6.91
2022-09-18T08:45:00.000Z,8.56
2022-09-18T09:00:00.000Z,4.41
2022-09-18T09:15:00.000Z,5.49
2022-09-18T09:30:00.000Z,7.28
2022-09-18T09:45:00.000Z,7.25
2022-09-18T10:00:00.000Z,9.16
2022-09-18T10:15:00.000Z,10.14
2022-09-18T10:30:00.000Z,8.27
2022-09-18T10:45:00.000Z,7.67
2022-09-18T11:00:00.000Z,6.64
2022-09-18T11:15:00.000Z,6.31
2022-09-18T11:30:00.000Z,16.05
2022-09-18T11:45:00.000Z,6.85
2022-09-18T12:00:00.000Z,6.67
2022-09-18T12:15:00.000Z,4.18
2022-09-18T12:30:00.000Z,4.28
2022-09-18T12:45:00.000Z,4.55
2022-09-18T13:00:00.000Z,5.59
2022-09-18T13:15:00.000Z,5.05
2022-09-18T13:30:00.000Z,5.36
2022-09-18T13:45:00.000Z,11.91
2022-09-18T14:00:00.000Z,5.39
2022-09-18T14:15:00.000Z,4.49
2022-09-18T14:30:00.000Z,5.38
2022-09-18T14:45:00.000Z,6.87
2022-09-18T15:00:00.000Z,5.51
2022-09-18T15:15:00.000Z,5.24
2022-09-18T15:30:00.000Z,4.88
2022-09-18T15:45:00.000Z,6.62
2022-09-18T16:00:00.000Z,7.16
2022-09-18T16:15:00.000Z,7.86
2022-09-18T16:30:00.000Z,9.42
2022-09-18T16:45:00.000Z,12.35
2022-09-18T17:00:00.000Z,12.42
2022-09-18T17:15:00.000Z,14.68
2022-09-18T17:30:00.000Z,14.19
2022-09-18T17:45:00.000Z,8.66
2022-09-18T18:00:00.000Z,8.74
2022-09-18T18:15:00.000Z,9
2022-09-18T18:30:00.000Z,10.04
2022-09-18T18:45:00.000Z,10.65
2022-09-18T19:00:00.000Z,11.51
2022-09-18T19:15:00.000Z,10.02
2022-09-18T19:30:00.000Z,12.51
2022-09-18T19:45:00.000Z,9.04
2022-09-18T20:00:00.000Z,8.59
2022-09-18T20:15:00.000Z,8.15
2022-09-18T20:30:00.000Z,7.59
2022-09-18T21:00:00.000Z,9
2022-09-18T21:00:00.000Z,7.46
2022-09-18T21:15:00.000Z,7.25
2022-09-18T21:30:00.000Z,7.25
2022-09-18T21:45:00.000Z,7.8
2022-09-18T22:00:00.000Z,7.84
2022-09-18T22:15:00.000Z,8.78
2022-09-18T22:30:00.000Z,6.61
2022-09-18T22:45:00.000Z,5.09
2022-09-18T23:00:00.000Z,4.68
2022-09-18T23:15:00.000Z,4.76
2022-09-18T23:30:00.000Z,4.6
2022-09-18T23:45:00.000Z,4.69
